sensor_id;sensor_type;location;lat;lon;timestamp;temperature;humidity
42227;DHT22;27892;52.378;13.122;2023-02-28T00:00:10;4.90;56.70
42227;DHT22;27892;52.378;13.122;2023-02-28T00:02:40;5.00;56.70
42227;DHT22;27892;52.378;13.122;2023-02-28T00:05:09;5.00;57.20
42227;DHT22;27892;52.378;13.122;2023-02-28T00:07:35;5.00;56.70
42227;DHT22;27892;52.378;13.122;2023-02-28T00:10:00;5.00;56.70
42227;DHT22;27892;52.378;13.122;2023-02-28T00:12:27;5.00;56.60
42227;DHT22;27892;52.378;13.122;2023-02-28T00:14:52;5.00;56.40
42227;DHT22;27892;52.378;13.122;2023-02-28T00:17:19;5.10;56.40
42227;DHT22;27892;52.378;13.122;2023-02-28T00:19:50;5.10;56.60
42227;DHT22;27892;52.378;13.122;2023-02-28T00:22:18;5.10;56.80
42227;DHT22;27892;52.378;13.122;2023-02-28T00:24:44;5.10;56.80
42227;DHT22;27892;52.378;13.122;2023-02-28T00:27:11;5.00;56.80
42227;DHT22;27892;52.378;13.122;2023-02-28T00:29:37;5.10;56.80
42227;DHT22;27892;52.378;13.122;2023-02-28T00:32:03;5.10;56.70
42227;DHT22;27892;52.378;13.122;2023-02-28T00:34:29;5.10;56.90
42227;DHT22;27892;52.378;13.122;2023-02-28T00:36:55;5.10;56.80
42227;DHT22;27892;52.378;13.122;2023-02-28T00:39:21;5.10;56.80
42227;DHT22;27892;52.378;13.122;2023-02-28T00:41:46;5.10;56.60
42227;DHT22;27892;52.378;13.122;2023-02-28T00:44:12;5.10;56.60
42227;DHT22;27892;52.378;13.122;2023-02-28T00:46:38;5.10;56.80
42227;DHT22;27892;52.378;13.122;2023-02-28T00:49:03;5.10;56.80
42227;DHT22;27892;52.378;13.122;2023-02-28T00:51:29;5.10;56.90
42227;DHT22;27892;52.378;13.122;2023-02-28T00:53:55;5.10;57.40
42227;DHT22;27892;52.378;13.122;2023-02-28T00:56:20;5.10;56.90
42227;DHT22;27892;52.378;13.122;2023-02-28T00:58:46;5.10;56.90
42227;DHT22;27892;52.378;13.122;2023-02-28T01:01:12;5.10;56.90
42227;DHT22;27892;52.378;13.122;2023-02-28T01:03:37;5.00;56.70
42227;DHT22;27892;52.378;13.122;2023-02-28T01:06:04;5.10;56.90
42227;DHT22;27892;52.378;13.122;2023-02-28T01:08:30;5.00;56.80
42227;DHT22;27892;52.378;13.122;2023-02-28T01:10:56;5.00;57.00
42227;DHT22;27892;52.378;13.122;2023-02-28T01:13:22;5.00;57.10
42227;DHT22;27892;52.378;13.122;2023-02-28T01:15:50;5.00;57.10
42227;DHT22;27892;52.378;13.122;2023-02-28T01:18:17;5.10;57.30
42227;DHT22;27892;52.378;13.122;2023-02-28T01:20:42;5.00;56.90
42227;DHT22;27892;52.378;13.122;2023-02-28T01:23:08;5.00;56.80
42227;DHT22;27892;52.378;13.122;2023-02-28T01:25:35;5.00;57.10
42227;DHT22;27892;52.378;13.122;2023-02-28T01:28:01;5.00;57.20
42227;DHT22;27892;52.378;13.122;2023-02-28T01:30:27;5.00;57.10
42227;DHT22;27892;52.378;13.122;2023-02-28T01:32:53;5.00;57.00
42227;DHT22;27892;52.378;13.122;2023-02-28T01:35:19;4.90;57.10
42227;DHT22;27892;52.378;13.122;2023-02-28T01:37:45;4.90;57.30
42227;DHT22;27892;52.378;13.122;2023-02-28T01:40:11;4.90;57.70
42227;DHT22;27892;52.378;13.122;2023-02-28T01:42:37;5.00;57.60
42227;DHT22;27892;52.378;13.122;2023-02-28T01:47:43;5.00;57.50
42227;DHT22;27892;52.378;13.122;2023-02-28T01:50:16;5.00;57.60
42227;DHT22;27892;52.378;13.122;2023-02-28T01:52:44;5.00;57.60
42227;DHT22;27892;52.378;13.122;2023-02-28T01:55:12;5.00;57.60
42227;DHT22;27892;52.378;13.122;2023-02-28T01:57:43;4.90;57.60
42227;DHT22;27892;52.378;13.122;2023-02-28T02:00:14;4.90;57.80
42227;DHT22;27892;52.378;13.122;2023-02-28T02:02:46;4.90;57.70
42227;DHT22;27892;52.378;13.122;2023-02-28T02:05:16;4.80;57.60
42227;DHT22;27892;52.378;13.122;2023-02-28T02:07:44;4.80;57.50
42227;DHT22;27892;52.378;13.122;2023-02-28T02:15:58;4.70;58.30
42227;DHT22;27892;52.378;13.122;2023-02-28T02:18:43;4.80;58.30
42227;DHT22;27892;52.378;13.122;2023-02-28T02:24:27;4.80;58.00
42227;DHT22;27892;52.378;13.122;2023-02-28T02:35:28;4.70;58.40
42227;DHT22;27892;52.378;13.122;2023-02-28T02:40:53;4.70;58.20
42227;DHT22;27892;52.378;13.122;2023-02-28T02:43:27;4.70;57.80
42227;DHT22;27892;52.378;13.122;2023-02-28T02:46:13;4.40;57.60
42227;DHT22;27892;52.378;13.122;2023-02-28T02:48:40;4.40;58.30
42227;DHT22;27892;52.378;13.122;2023-02-28T02:51:11;4.40;58.20
42227;DHT22;27892;52.378;13.122;2023-02-28T02:53:45;4.30;58.10
42227;DHT22;27892;52.378;13.122;2023-02-28T02:56:19;4.30;58.30
42227;DHT22;27892;52.378;13.122;2023-02-28T02:58:47;4.30;58.30
42227;DHT22;27892;52.378;13.122;2023-02-28T03:01:18;4.20;58.20
42227;DHT22;27892;52.378;13.122;2023-02-28T03:03:57;4.20;58.40
42227;DHT22;27892;52.378;13.122;2023-02-28T03:06:42;4.10;58.30
42227;DHT22;27892;52.378;13.122;2023-02-28T03:09:26;4.00;58.10
42227;DHT22;27892;52.378;13.122;2023-02-28T03:12:12;3.80;58.70
42227;DHT22;27892;52.378;13.122;2023-02-28T03:15:16;3.70;58.30
42227;DHT22;27892;52.378;13.122;2023-02-28T03:20:42;3.50;58.40
42227;DHT22;27892;52.378;13.122;2023-02-28T03:23:59;3.40;58.70
42227;DHT22;27892;52.378;13.122;2023-02-28T03:26:25;3.30;58.80
42227;DHT22;27892;52.378;13.122;2023-02-28T03:29:02;3.30;58.90
42227;DHT22;27892;52.378;13.122;2023-02-28T03:31:44;3.20;58.90
42227;DHT22;27892;52.378;13.122;2023-02-28T03:36:47;3.10;59.30
42227;DHT22;27892;52.378;13.122;2023-02-28T03:39:37;3.00;59.00
42227;DHT22;27892;52.378;13.122;2023-02-28T03:42:07;2.90;59.40
42227;DHT22;27892;52.378;13.122;2023-02-28T03:44:43;2.90;59.60
42227;DHT22;27892;52.378;13.122;2023-02-28T03:47:57;2.80;59.70
42227;DHT22;27892;52.378;13.122;2023-02-28T03:53:10;2.80;59.50
42227;DHT22;27892;52.378;13.122;2023-02-28T03:56:12;2.80;59.70
42227;DHT22;27892;52.378;13.122;2023-02-28T04:01:10;2.70;59.60
42227;DHT22;27892;52.378;13.122;2023-02-28T04:03:38;2.70;59.60
42227;DHT22;27892;52.378;13.122;2023-02-28T04:06:07;2.60;59.60
42227;DHT22;27892;52.378;13.122;2023-02-28T04:08:33;2.60;59.80
42227;DHT22;27892;52.378;13.122;2023-02-28T04:13:39;2.70;60.20
42227;DHT22;27892;52.378;13.122;2023-02-28T04:16:08;2.60;59.90
42227;DHT22;27892;52.378;13.122;2023-02-28T04:18:38;2.60;59.80
42227;DHT22;27892;52.378;13.122;2023-02-28T04:21:05;2.50;60.30
42227;DHT22;27892;52.378;13.122;2023-02-28T04:23:31;2.40;59.60
42227;DHT22;27892;52.378;13.122;2023-02-28T04:25:57;2.40;60.70
42227;DHT22;27892;52.378;13.122;2023-02-28T04:28:23;2.40;60.30
42227;DHT22;27892;52.378;13.122;2023-02-28T04:30:57;2.30;60.00
42227;DHT22;27892;52.378;13.122;2023-02-28T04:33:23;2.20;59.80
42227;DHT22;27892;52.378;13.122;2023-02-28T04:36:01;2.20;60.20
42227;DHT22;27892;52.378;13.122;2023-02-28T04:38:29;2.20;60.20
42227;DHT22;27892;52.378;13.122;2023-02-28T04:40:57;2.10;60.20
42227;DHT22;27892;52.378;13.122;2023-02-28T04:43:23;2.20;60.30
42227;DHT22;27892;52.378;13.122;2023-02-28T04:45:48;2.10;60.00
42227;DHT22;27892;52.378;13.122;2023-02-28T04:48:14;2.10;60.00
42227;DHT22;27892;52.378;13.122;2023-02-28T04:50:39;2.00;60.10
42227;DHT22;27892;52.378;13.122;2023-02-28T04:53:05;1.90;60.10
42227;DHT22;27892;52.378;13.122;2023-02-28T04:55:31;1.90;60.10
42227;DHT22;27892;52.378;13.122;2023-02-28T04:57:56;1.90;60.10
42227;DHT22;27892;52.378;13.122;2023-02-28T05:00:23;1.80;59.90
42227;DHT22;27892;52.378;13.122;2023-02-28T05:02:49;1.80;60.00
42227;DHT22;27892;52.378;13.122;2023-02-28T05:05:15;1.80;60.20
42227;DHT22;27892;52.378;13.122;2023-02-28T05:07:44;1.70;59.90
42227;DHT22;27892;52.378;13.122;2023-02-28T05:10:10;1.70;60.00
42227;DHT22;27892;52.378;13.122;2023-02-28T05:12:36;1.70;60.00
42227;DHT22;27892;52.378;13.122;2023-02-28T05:15:03;1.70;59.80
42227;DHT22;27892;52.378;13.122;2023-02-28T05:17:30;1.60;59.70
42227;DHT22;27892;52.378;13.122;2023-02-28T05:19:56;1.60;60.60
42227;DHT22;27892;52.378;13.122;2023-02-28T05:22:22;1.50;60.10
42227;DHT22;27892;52.378;13.122;2023-02-28T05:24:47;1.50;60.40
42227;DHT22;27892;52.378;13.122;2023-02-28T05:27:13;1.60;60.60
42227;DHT22;27892;52.378;13.122;2023-02-28T05:29:39;1.50;60.00
42227;DHT22;27892;52.378;13.122;2023-02-28T05:32:11;1.40;59.90
42227;DHT22;27892;52.378;13.122;2023-02-28T05:34:38;1.40;60.10
42227;DHT22;27892;52.378;13.122;2023-02-28T05:37:06;1.30;60.10
42227;DHT22;27892;52.378;13.122;2023-02-28T05:39:32;1.30;60.30
42227;DHT22;27892;52.378;13.122;2023-02-28T05:41:58;1.30;60.50
42227;DHT22;27892;52.378;13.122;2023-02-28T05:44:24;1.30;60.40
42227;DHT22;27892;52.378;13.122;2023-02-28T05:46:50;1.20;60.40
42227;DHT22;27892;52.378;13.122;2023-02-28T05:49:15;1.20;60.50
42227;DHT22;27892;52.378;13.122;2023-02-28T05:51:41;1.30;60.40
42227;DHT22;27892;52.378;13.122;2023-02-28T05:54:07;1.30;60.50
42227;DHT22;27892;52.378;13.122;2023-02-28T05:56:33;1.30;60.60
42227;DHT22;27892;52.378;13.122;2023-02-28T05:59:01;1.30;60.40
42227;DHT22;27892;52.378;13.122;2023-02-28T06:01:34;1.20;60.30
42227;DHT22;27892;52.378;13.122;2023-02-28T06:04:01;1.20;60.20
42227;DHT22;27892;52.378;13.122;2023-02-28T06:06:28;1.20;60.60
42227;DHT22;27892;52.378;13.122;2023-02-28T06:08:55;1.20;60.60
42227;DHT22;27892;52.378;13.122;2023-02-28T06:11:21;1.30;61.00
42227;DHT22;27892;52.378;13.122;2023-02-28T06:13:54;1.30;60.90
42227;DHT22;27892;52.378;13.122;2023-02-28T06:16:20;1.30;60.50
42227;DHT22;27892;52.378;13.122;2023-02-28T06:18:46;1.40;60.70
42227;DHT22;27892;52.378;13.122;2023-02-28T06:21:12;1.40;60.40
42227;DHT22;27892;52.378;13.122;2023-02-28T06:23:38;1.40;60.30
42227;DHT22;27892;52.378;13.122;2023-02-28T06:26:04;1.40;60.20
42227;DHT22;27892;52.378;13.122;2023-02-28T06:28:29;1.40;60.00
42227;DHT22;27892;52.378;13.122;2023-02-28T06:30:55;1.40;60.00
42227;DHT22;27892;52.378;13.122;2023-02-28T06:33:21;1.40;60.30
42227;DHT22;27892;52.378;13.122;2023-02-28T06:35:49;1.50;60.40
42227;DHT22;27892;52.378;13.122;2023-02-28T06:38:15;1.60;60.40
42227;DHT22;27892;52.378;13.122;2023-02-28T06:40:41;1.70;60.60
42227;DHT22;27892;52.378;13.122;2023-02-28T06:43:07;1.80;60.50
42227;DHT22;27892;52.378;13.122;2023-02-28T06:45:32;2.00;60.40
42227;DHT22;27892;52.378;13.122;2023-02-28T06:47:58;2.10;60.30
42227;DHT22;27892;52.378;13.122;2023-02-28T06:50:25;2.20;60.50
42227;DHT22;27892;52.378;13.122;2023-02-28T06:52:53;2.40;60.50
42227;DHT22;27892;52.378;13.122;2023-02-28T06:55:20;2.60;60.60
42227;DHT22;27892;52.378;13.122;2023-02-28T06:57:45;2.80;60.60
42227;DHT22;27892;52.378;13.122;2023-02-28T07:00:11;3.00;60.30
42227;DHT22;27892;52.378;13.122;2023-02-28T07:02:37;3.20;60.30
42227;DHT22;27892;52.378;13.122;2023-02-28T07:05:04;3.40;60.30
42227;DHT22;27892;52.378;13.122;2023-02-28T07:07:30;3.60;60.20
42227;DHT22;27892;52.378;13.122;2023-02-28T07:09:56;3.90;60.20
42227;DHT22;27892;52.378;13.122;2023-02-28T07:12:21;4.20;60.20
42227;DHT22;27892;52.378;13.122;2023-02-28T07:14:47;4.70;60.90
42227;DHT22;27892;52.378;13.122;2023-02-28T07:17:14;5.70;59.90
42227;DHT22;27892;52.378;13.122;2023-02-28T07:19:40;7.30;58.40
42227;DHT22;27892;52.378;13.122;2023-02-28T07:22:06;8.50;55.70
42227;DHT22;27892;52.378;13.122;2023-02-28T07:24:32;9.30;53.20
42227;DHT22;27892;52.378;13.122;2023-02-28T07:26:58;9.80;51.70
42227;DHT22;27892;52.378;13.122;2023-02-28T07:29:25;10.10;49.40
42227;DHT22;27892;52.378;13.122;2023-02-28T07:31:50;10.00;48.70
42227;DHT22;27892;52.378;13.122;2023-02-28T07:34:19;9.60;48.90
42227;DHT22;27892;52.378;13.122;2023-02-28T07:36:44;8.90;48.70
42227;DHT22;27892;52.378;13.122;2023-02-28T07:39:10;8.30;49.10
42227;DHT22;27892;52.378;13.122;2023-02-28T07:41:36;7.70;49.60
42227;DHT22;27892;52.378;13.122;2023-02-28T07:44:10;7.20;50.30
42227;DHT22;27892;52.378;13.122;2023-02-28T07:46:35;6.90;51.00
42227;DHT22;27892;52.378;13.122;2023-02-28T07:49:01;6.60;51.40
42227;DHT22;27892;52.378;13.122;2023-02-28T07:51:29;6.40;51.80
42227;DHT22;27892;52.378;13.122;2023-02-28T07:53:55;6.30;52.20
42227;DHT22;27892;52.378;13.122;2023-02-28T07:56:21;6.10;52.50
42227;DHT22;27892;52.378;13.122;2023-02-28T07:58:46;6.00;52.80
42227;DHT22;27892;52.378;13.122;2023-02-28T08:01:12;6.00;53.30
42227;DHT22;27892;52.378;13.122;2023-02-28T08:03:39;6.00;53.70
42227;DHT22;27892;52.378;13.122;2023-02-28T08:06:05;6.00;53.60
42227;DHT22;27892;52.378;13.122;2023-02-28T08:08:32;6.10;54.40
42227;DHT22;27892;52.378;13.122;2023-02-28T08:10:59;6.20;54.00
42227;DHT22;27892;52.378;13.122;2023-02-28T08:13:26;6.30;54.20
42227;DHT22;27892;52.378;13.122;2023-02-28T08:15:53;6.40;54.20
42227;DHT22;27892;52.378;13.122;2023-02-28T08:18:19;6.90;54.80
42227;DHT22;27892;52.378;13.122;2023-02-28T08:20:45;9.40;55.80
42227;DHT22;27892;52.378;13.122;2023-02-28T08:23:10;12.50;49.60
42227;DHT22;27892;52.378;13.122;2023-02-28T08:25:36;13.90;40.70
42227;DHT22;27892;52.378;13.122;2023-02-28T08:28:02;13.80;40.50
42227;DHT22;27892;52.378;13.122;2023-02-28T08:30:27;16.20;41.20
42227;DHT22;27892;52.378;13.122;2023-02-28T08:32:53;19.00;34.10
42227;DHT22;27892;52.378;13.122;2023-02-28T08:35:19;21.30;33.30
42227;DHT22;27892;52.378;13.122;2023-02-28T08:37:47;23.00;29.60
42227;DHT22;27892;52.378;13.122;2023-02-28T08:40:13;24.30;28.60
42227;DHT22;27892;52.378;13.122;2023-02-28T08:42:44;24.50;24.60
42227;DHT22;27892;52.378;13.122;2023-02-28T08:45:10;24.20;24.90
42227;DHT22;27892;52.378;13.122;2023-02-28T08:47:36;24.10;22.70
42227;DHT22;27892;52.378;13.122;2023-02-28T08:50:02;23.70;21.90
42227;DHT22;27892;52.378;13.122;2023-02-28T08:52:28;22.40;20.10
42227;DHT22;27892;52.378;13.122;2023-02-28T08:54:53;22.80;22.10
42227;DHT22;27892;52.378;13.122;2023-02-28T08:57:19;24.00;23.10
42227;DHT22;27892;52.378;13.122;2023-02-28T08:59:45;24.90;21.90
42227;DHT22;27892;52.378;13.122;2023-02-28T09:02:13;25.10;20.50
42227;DHT22;27892;52.378;13.122;2023-02-28T09:04:42;25.50;19.40
42227;DHT22;27892;52.378;13.122;2023-02-28T09:07:07;25.10;19.30
42227;DHT22;27892;52.378;13.122;2023-02-28T09:09:33;25.70;19.50
42227;DHT22;27892;52.378;13.122;2023-02-28T09:11:59;26.20;19.10
42227;DHT22;27892;52.378;13.122;2023-02-28T09:14:24;25.90;19.10
42227;DHT22;27892;52.378;13.122;2023-02-28T09:16:50;25.30;18.60
42227;DHT22;27892;52.378;13.122;2023-02-28T09:19:16;24.30;18.40
42227;DHT22;27892;52.378;13.122;2023-02-28T09:21:41;23.10;17.80
42227;DHT22;27892;52.378;13.122;2023-02-28T09:24:07;22.70;19.10
42227;DHT22;27892;52.378;13.122;2023-02-28T09:26:33;21.00;18.20
42227;DHT22;27892;52.378;13.122;2023-02-28T09:29:00;18.90;19.10
42227;DHT22;27892;52.378;13.122;2023-02-28T09:31:27;16.80;20.50
42227;DHT22;27892;52.378;13.122;2023-02-28T09:33:56;15.30;21.60
42227;DHT22;27892;52.378;13.122;2023-02-28T09:36:23;13.60;23.00
42227;DHT22;27892;52.378;13.122;2023-02-28T09:38:49;11.90;23.80
42227;DHT22;27892;52.378;13.122;2023-02-28T09:41:25;11.20;24.40
42227;DHT22;27892;52.378;13.122;2023-02-28T09:43:56;10.70;25.80
42227;DHT22;27892;52.378;13.122;2023-02-28T09:46:38;10.40;26.70
42227;DHT22;27892;52.378;13.122;2023-02-28T09:49:18;10.20;26.30
42227;DHT22;27892;52.378;13.122;2023-02-28T09:51:55;9.80;27.30
42227;DHT22;27892;52.378;13.122;2023-02-28T09:54:24;9.60;27.70
42227;DHT22;27892;52.378;13.122;2023-02-28T09:57:50;9.30;28.30
42227;DHT22;27892;52.378;13.122;2023-02-28T10:15:51;8.40;30.80
42227;DHT22;27892;52.378;13.122;2023-02-28T10:18:23;8.30;30.20
42227;DHT22;27892;52.378;13.122;2023-02-28T10:20:51;8.40;30.60
42227;DHT22;27892;52.378;13.122;2023-02-28T10:23:25;8.40;30.80
42227;DHT22;27892;52.378;13.122;2023-02-28T10:26:00;8.50;31.20
42227;DHT22;27892;52.378;13.122;2023-02-28T10:28:26;8.00;30.90
42227;DHT22;27892;52.378;13.122;2023-02-28T10:30:54;8.10;31.00
42227;DHT22;27892;52.378;13.122;2023-02-28T10:33:25;8.30;31.30
42227;DHT22;27892;52.378;13.122;2023-02-28T10:35:52;9.20;32.20
42227;DHT22;27892;52.378;13.122;2023-02-28T10:38:34;9.90;30.80
42227;DHT22;27892;52.378;13.122;2023-02-28T10:41:13;9.80;29.00
42227;DHT22;27892;52.378;13.122;2023-02-28T10:43:41;10.00;28.40
42227;DHT22;27892;52.378;13.122;2023-02-28T10:48:48;11.70;28.30
42227;DHT22;27892;52.378;13.122;2023-02-28T10:51:18;13.10;27.20
42227;DHT22;27892;52.378;13.122;2023-02-28T10:53:52;15.40;27.10
42227;DHT22;27892;52.378;13.122;2023-02-28T10:56:20;16.40;22.90
42227;DHT22;27892;52.378;13.122;2023-02-28T11:01:45;17.40;23.90
42227;DHT22;27892;52.378;13.122;2023-02-28T11:07:19;19.60;22.80
42227;DHT22;27892;52.378;13.122;2023-02-28T11:09:48;20.10;22.40
42227;DHT22;27892;52.378;13.122;2023-02-28T11:12:30;20.10;23.20
42227;DHT22;27892;52.378;13.122;2023-02-28T11:15:00;20.30;22.60
42227;DHT22;27892;52.378;13.122;2023-02-28T11:17:29;20.40;22.60
42227;DHT22;27892;52.378;13.122;2023-02-28T11:20:05;18.90;20.50
42227;DHT22;27892;52.378;13.122;2023-02-28T11:22:39;18.20;21.70
42227;DHT22;27892;52.378;13.122;2023-02-28T11:25:30;17.60;21.70
42227;DHT22;27892;52.378;13.122;2023-02-28T11:27:57;17.20;21.00
42227;DHT22;27892;52.378;13.122;2023-02-28T11:30:38;17.00;22.70
42227;DHT22;27892;52.378;13.122;2023-02-28T11:33:22;17.20;22.10
42227;DHT22;27892;52.378;13.122;2023-02-28T11:35:50;16.70;22.30
42227;DHT22;27892;52.378;13.122;2023-02-28T11:38:16;16.90;22.60
42227;DHT22;27892;52.378;13.122;2023-02-28T11:46:47;18.90;20.40
42227;DHT22;27892;52.378;13.122;2023-02-28T11:57:55;19.80;19.20
42227;DHT22;27892;52.378;13.122;2023-02-28T12:03:48;20.20;19.50
42227;DHT22;27892;52.378;13.122;2023-02-28T12:09:29;20.40;21.00
42227;DHT22;27892;52.378;13.122;2023-02-28T12:12:12;20.70;19.80
42227;DHT22;27892;52.378;13.122;2023-02-28T12:26:51;18.60;21.00
42227;DHT22;27892;52.378;13.122;2023-02-28T12:29:19;18.30;21.50
42227;DHT22;27892;52.378;13.122;2023-02-28T12:34:37;17.70;21.50
42227;DHT22;27892;52.378;13.122;2023-02-28T12:37:25;16.80;20.70
42227;DHT22;27892;52.378;13.122;2023-02-28T12:39:59;16.50;21.00
42227;DHT22;27892;52.378;13.122;2023-02-28T12:42:29;16.20;21.60
42227;DHT22;27892;52.378;13.122;2023-02-28T12:44:59;16.30;22.10
42227;DHT22;27892;52.378;13.122;2023-02-28T12:47:26;15.90;22.10
42227;DHT22;27892;52.378;13.122;2023-02-28T12:50:12;16.00;22.20
42227;DHT22;27892;52.378;13.122;2023-02-28T12:58:29;16.80;22.70
42227;DHT22;27892;52.378;13.122;2023-02-28T13:09:56;14.20;23.40
42227;DHT22;27892;52.378;13.122;2023-02-28T13:12:22;13.60;24.00
42227;DHT22;27892;52.378;13.122;2023-02-28T13:14:49;13.20;24.60
42227;DHT22;27892;52.378;13.122;2023-02-28T13:17:23;12.70;24.60
42227;DHT22;27892;52.378;13.122;2023-02-28T13:22:43;11.60;25.60
42227;DHT22;27892;52.378;13.122;2023-02-28T13:27:52;11.50;26.30
42227;DHT22;27892;52.378;13.122;2023-02-28T13:33:24;12.60;27.70
42227;DHT22;27892;52.378;13.122;2023-02-28T13:38:49;14.50;26.00
42227;DHT22;27892;52.378;13.122;2023-02-28T13:51:52;16.50;22.40
42227;DHT22;27892;52.378;13.122;2023-02-28T14:07:49;19.00;22.70
42227;DHT22;27892;52.378;13.122;2023-02-28T14:10:26;19.90;22.70
42227;DHT22;27892;52.378;13.122;2023-02-28T14:21:08;19.10;19.50
42227;DHT22;27892;52.378;13.122;2023-02-28T14:32:01;19.60;21.40
42227;DHT22;27892;52.378;13.122;2023-02-28T14:37:27;17.10;21.80
42227;DHT22;27892;52.378;13.122;2023-02-28T14:39:54;15.80;22.10
42227;DHT22;27892;52.378;13.122;2023-02-28T14:42:35;14.60;22.50
42227;DHT22;27892;52.378;13.122;2023-02-28T14:45:04;13.70;23.50
42227;DHT22;27892;52.378;13.122;2023-02-28T14:47:34;13.10;24.10
42227;DHT22;27892;52.378;13.122;2023-02-28T14:50:02;12.60;24.60
42227;DHT22;27892;52.378;13.122;2023-02-28T14:52:31;12.00;24.90
42227;DHT22;27892;52.378;13.122;2023-02-28T14:54:59;11.40;25.50
42227;DHT22;27892;52.378;13.122;2023-02-28T14:57:34;11.20;26.20
42227;DHT22;27892;52.378;13.122;2023-02-28T15:02:38;10.70;27.00
42227;DHT22;27892;52.378;13.122;2023-02-28T15:07:46;10.50;27.50
42227;DHT22;27892;52.378;13.122;2023-02-28T15:12:55;10.20;27.60
42227;DHT22;27892;52.378;13.122;2023-02-28T15:16:28;10.10;27.80
42227;DHT22;27892;52.378;13.122;2023-02-28T15:21:23;9.90;29.20
42227;DHT22;27892;52.378;13.122;2023-02-28T15:23:56;10.00;28.30
42227;DHT22;27892;52.378;13.122;2023-02-28T15:26:29;10.00;28.20
42227;DHT22;27892;52.378;13.122;2023-02-28T15:29:12;9.80;28.90
42227;DHT22;27892;52.378;13.122;2023-02-28T15:32:06;9.80;29.20
42227;DHT22;27892;52.378;13.122;2023-02-28T15:34:38;9.80;29.20
42227;DHT22;27892;52.378;13.122;2023-02-28T15:39:51;9.80;29.40
42227;DHT22;27892;52.378;13.122;2023-02-28T15:42:22;9.80;30.20
42227;DHT22;27892;52.378;13.122;2023-02-28T15:44:48;9.70;30.10
42227;DHT22;27892;52.378;13.122;2023-02-28T15:47:19;9.70;30.00
42227;DHT22;27892;52.378;13.122;2023-02-28T15:49:46;9.60;29.80
42227;DHT22;27892;52.378;13.122;2023-02-28T15:52:16;9.50;30.00
42227;DHT22;27892;52.378;13.122;2023-02-28T15:54:43;9.40;30.00
42227;DHT22;27892;52.378;13.122;2023-02-28T15:57:16;9.30;30.00
42227;DHT22;27892;52.378;13.122;2023-02-28T15:59:53;9.30;30.70
42227;DHT22;27892;52.378;13.122;2023-02-28T16:02:22;9.30;30.20
42227;DHT22;27892;52.378;13.122;2023-02-28T16:07:56;9.30;30.00
42227;DHT22;27892;52.378;13.122;2023-02-28T16:10:24;9.20;30.00
42227;DHT22;27892;52.378;13.122;2023-02-28T16:12:53;9.20;30.30
42227;DHT22;27892;52.378;13.122;2023-02-28T16:15:28;9.10;30.10
42227;DHT22;27892;52.378;13.122;2023-02-28T16:17:55;9.10;30.30
42227;DHT22;27892;52.378;13.122;2023-02-28T16:20:23;9.00;30.70
42227;DHT22;27892;52.378;13.122;2023-02-28T16:22:50;9.00;31.00
42227;DHT22;27892;52.378;13.122;2023-02-28T16:25:19;8.90;31.70
42227;DHT22;27892;52.378;13.122;2023-02-28T16:27:48;8.80;32.10
42227;DHT22;27892;52.378;13.122;2023-02-28T16:30:20;8.70;32.50
42227;DHT22;27892;52.378;13.122;2023-02-28T16:32:47;8.60;33.10
42227;DHT22;27892;52.378;13.122;2023-02-28T16:35:14;8.40;33.20
42227;DHT22;27892;52.378;13.122;2023-02-28T16:37:40;8.30;33.20
42227;DHT22;27892;52.378;13.122;2023-02-28T16:40:09;8.20;33.60
42227;DHT22;27892;52.378;13.122;2023-02-28T16:42:34;8.10;33.90
42227;DHT22;27892;52.378;13.122;2023-02-28T16:45:00;8.00;34.50
42227;DHT22;27892;52.378;13.122;2023-02-28T16:47:26;7.90;35.00
42227;DHT22;27892;52.378;13.122;2023-02-28T16:49:52;7.80;35.20
42227;DHT22;27892;52.378;13.122;2023-02-28T16:52:18;7.60;35.60
42227;DHT22;27892;52.378;13.122;2023-02-28T16:54:43;7.50;35.80
42227;DHT22;27892;52.378;13.122;2023-02-28T16:57:20;7.40;36.20
42227;DHT22;27892;52.378;13.122;2023-02-28T16:59:47;7.30;36.50
42227;DHT22;27892;52.378;13.122;2023-02-28T17:02:14;7.10;36.60
42227;DHT22;27892;52.378;13.122;2023-02-28T17:04:42;7.00;37.20
42227;DHT22;27892;52.378;13.122;2023-02-28T17:07:12;6.90;37.40
42227;DHT22;27892;52.378;13.122;2023-02-28T17:09:39;6.80;37.70
42227;DHT22;27892;52.378;13.122;2023-02-28T17:12:06;6.70;38.30
42227;DHT22;27892;52.378;13.122;2023-02-28T17:14:32;6.60;38.40
42227;DHT22;27892;52.378;13.122;2023-02-28T17:16:57;6.40;38.60
42227;DHT22;27892;52.378;13.122;2023-02-28T17:19:23;6.30;38.80
42227;DHT22;27892;52.378;13.122;2023-02-28T17:21:49;6.20;39.30
42227;DHT22;27892;52.378;13.122;2023-02-28T17:24:14;6.10;39.50
42227;DHT22;27892;52.378;13.122;2023-02-28T17:26:41;6.00;39.70
42227;DHT22;27892;52.378;13.122;2023-02-28T17:29:18;5.90;40.00
42227;DHT22;27892;52.378;13.122;2023-02-28T17:31:44;5.80;40.10
42227;DHT22;27892;52.378;13.122;2023-02-28T17:34:11;5.70;40.30
42227;DHT22;27892;52.378;13.122;2023-02-28T17:36:36;5.60;40.70
42227;DHT22;27892;52.378;13.122;2023-02-28T17:39:04;5.50;40.90
42227;DHT22;27892;52.378;13.122;2023-02-28T17:41:34;5.40;41.10
42227;DHT22;27892;52.378;13.122;2023-02-28T17:43:59;5.40;41.30
42227;DHT22;27892;52.378;13.122;2023-02-28T17:46:25;5.30;41.50
42227;DHT22;27892;52.378;13.122;2023-02-28T17:48:53;5.30;41.80
42227;DHT22;27892;52.378;13.122;2023-02-28T17:51:20;5.20;42.00
42227;DHT22;27892;52.378;13.122;2023-02-28T17:53:46;5.10;42.20
42227;DHT22;27892;52.378;13.122;2023-02-28T17:56:14;5.00;42.60
42227;DHT22;27892;52.378;13.122;2023-02-28T17:58:41;5.00;42.70
42227;DHT22;27892;52.378;13.122;2023-02-28T18:01:07;4.90;43.00
42227;DHT22;27892;52.378;13.122;2023-02-28T18:03:33;4.80;43.10
42227;DHT22;27892;52.378;13.122;2023-02-28T18:05:59;4.80;43.20
42227;DHT22;27892;52.378;13.122;2023-02-28T18:08:24;4.70;43.40
42227;DHT22;27892;52.378;13.122;2023-02-28T18:10:52;4.60;43.50
42227;DHT22;27892;52.378;13.122;2023-02-28T18:13:17;4.60;44.10
42227;DHT22;27892;52.378;13.122;2023-02-28T18:15:43;4.50;44.10
42227;DHT22;27892;52.378;13.122;2023-02-28T18:18:09;4.40;44.40
42227;DHT22;27892;52.378;13.122;2023-02-28T18:20:35;4.40;44.30
42227;DHT22;27892;52.378;13.122;2023-02-28T18:23:01;4.40;44.60
42227;DHT22;27892;52.378;13.122;2023-02-28T18:25:28;4.30;44.60
42227;DHT22;27892;52.378;13.122;2023-02-28T18:27:53;4.30;44.70
42227;DHT22;27892;52.378;13.122;2023-02-28T18:30:24;4.30;44.80
42227;DHT22;27892;52.378;13.122;2023-02-28T18:32:50;4.20;44.90
42227;DHT22;27892;52.378;13.122;2023-02-28T18:35:16;4.20;46.00
42227;DHT22;27892;52.378;13.122;2023-02-28T18:38:08;4.10;45.60
42227;DHT22;27892;52.378;13.122;2023-02-28T18:40:35;4.00;45.70
42227;DHT22;27892;52.378;13.122;2023-02-28T18:43:01;4.00;45.90